Time;durP1;ratioP1;P1;durP2;ratioP2;P2;SDS_P1;SDS_P2;PMS_P1;PMS_P2;Temp;Humidity;BMP_temperature;BMP_pressure;BME280_temperature;BME280_humidity;BME280_pressure;Samples;Min_cycle;Max_cycle;Signal;HPM_P1;HPM_P2
2021/07/17 00:02:00;;;;;;;14.27;6.50;;;;;;;;;;5018971;28;20133;-82
2021/07/17 00:04:28;;;;;;;13.77;5.68;;;;;;;;;;5017511;28;20049;-83
2021/07/17 00:06:55;;;;;;;12.68;5.70;;;;;;;;;;5008829;28;20057;-84
2021/07/17 00:09:21;;;;;;;14.30;6.13;;;;;;;;;;5016520;28;20076;-83
2021/07/17 00:11:48;;;;;;;12.35;5.18;;;;;;;;;;5007903;28;20071;-80
2021/07/17 00:14:18;;;;;;;12.55;6.43;;;;;;;;;;5018102;28;20087;-89
2021/07/17 00:16:45;;;;;;;14.63;6.75;;;;;;;;;;5038188;28;20063;-79
2021/07/17 00:19:12;;;;;;;11.77;5.65;;;;;;;;;;5040683;28;20116;-80
2021/07/17 00:21:38;;;;;;;14.45;5.05;;;;;;;;;;5038182;28;20095;-81
2021/07/17 00:24:05;;;;;;;15.88;6.07;;;;;;;;;;5036062;28;20037;-79
2021/07/17 00:26:32;;;;;;;12.98;5.35;;;;;;;;;;5035282;28;20041;-79
2021/07/17 00:28:58;;;;;;;15.27;5.70;;;;;;;;;;5038148;28;20175;-76
2021/07/17 00:31:25;;;;;;;13.05;5.05;;;;;;;;;;5037847;28;20115;-80
2021/07/17 00:33:51;;;;;;;16.58;6.20;;;;;;;;;;5021024;28;20128;-82
2021/07/17 00:36:19;;;;;;;16.65;4.53;;;;;;;;;;5042194;28;20038;-82
2021/07/17 00:38:45;;;;;;;10.02;4.18;;;;;;;;;;5043114;28;20037;-80
2021/07/17 00:41:12;;;;;;;14.57;6.03;;;;;;;;;;5036438;28;20086;-85
2021/07/17 00:43:39;;;;;;;14.95;6.38;;;;;;;;;;5030863;28;20051;-82
2021/07/17 00:46:06;;;;;;;15.38;5.63;;;;;;;;;;5024497;28;20048;-79
2021/07/17 00:48:35;;;;;;;13.60;5.13;;;;;;;;;;5038485;28;20056;-80
2021/07/17 00:51:03;;;;;;;12.18;4.90;;;;;;;;;;5022655;28;20543;-80
2021/07/17 00:53:29;;;;;;;10.00;5.57;;;;;;;;;;5049695;28;20034;-80
2021/07/17 00:55:58;;;;;;;13.25;5.82;;;;;;;;;;5009087;28;20033;-81
2021/07/17 00:58:28;;;;;;;15.07;5.50;;;;;;;;;;4993827;28;20046;-80
2021/07/17 01:00:55;;;;;;;9.10;5.38;;;;;;;;;;4993096;28;20041;-79
2021/07/17 01:03:22;;;;;;;13.13;4.72;;;;;;;;;;5007288;28;20428;-80
2021/07/17 01:05:51;;;;;;;12.88;4.57;;;;;;;;;;5001527;28;20127;-81
2021/07/17 01:08:19;;;;;;;16.35;4.63;;;;;;;;;;4999101;28;20061;-81
2021/07/17 01:10:45;;;;;;;;;;;;;;;;;;4998335;28;20045;-78
2021/07/17 01:13:12;;;;;;;16.80;5.15;;;;;;;;;;4991591;28;19923;-80
2021/07/17 01:15:38;;;;;;;11.98;5.72;;;;;;;;;;5015213;28;20052;-78
2021/07/17 01:18:08;;;;;;;21.60;6.35;;;;;;;;;;5001100;28;20125;-80
2021/07/17 01:20:36;;;;;;;14.52;5.32;;;;;;;;;;4986801;28;20038;-80
2021/07/17 01:23:03;;;;;;;12.63;4.93;;;;;;;;;;4993144;28;20519;-79
2021/07/17 01:25:33;;;;;;;15.80;5.75;;;;;;;;;;5012346;28;20080;-81
2021/07/17 01:28:01;;;;;;;15.77;5.60;;;;;;;;;;5002914;28;20408;-77
2021/07/17 01:30:37;;;;;;;15.40;5.88;;;;;;;;;;4997948;28;20042;-79
2021/07/17 01:33:07;;;;;;;13.02;5.80;;;;;;;;;;5002956;28;20041;-80
2021/07/17 01:35:37;;;;;;;13.32;6.45;;;;;;;;;;5007549;28;20172;-79
2021/07/17 01:38:05;;;;;;;13.95;5.70;;;;;;;;;;4993433;28;20049;-78
2021/07/17 01:40:32;;;;;;;13.68;5.50;;;;;;;;;;4998685;28;20480;-80
2021/07/17 01:43:04;;;;;;;13.25;6.25;;;;;;;;;;4983055;28;20140;-79
2021/07/17 01:45:38;;;;;;;16.58;6.70;;;;;;;;;;4984819;28;20048;-79
2021/07/17 01:48:07;;;;;;;17.67;5.78;;;;;;;;;;5014603;28;20049;-82
2021/07/17 01:50:36;;;;;;;15.52;6.03;;;;;;;;;;5018780;28;20096;-80
2021/07/17 01:53:05;;;;;;;16.55;6.03;;;;;;;;;;5024523;28;20048;-83
2021/07/17 01:55:32;;;;;;;13.57;5.82;;;;;;;;;;5017184;28;20041;-83
2021/07/17 01:58:01;;;;;;;18.25;6.65;;;;;;;;;;5029253;28;20091;-76
2021/07/17 02:00:28;;;;;;;12.77;5.60;;;;;;;;;;5011986;28;20048;-84
2021/07/17 02:02:56;;;;;;;12.35;5.75;;;;;;;;;;5002528;28;20045;-82
2021/07/17 02:05:24;;;;;;;17.85;5.00;;;;;;;;;;5028102;28;20076;-84
2021/07/17 02:07:51;;;;;;;13.43;5.20;;;;;;;;;;5023341;28;20029;-83
2021/07/17 02:10:21;;;;;;;9.52;3.63;;;;;;;;;;5027380;28;20040;-82
2021/07/17 02:12:58;;;;;;;16.63;4.82;;;;;;;;;;5023367;28;20041;-79
2021/07/17 02:15:26;;;;;;;11.52;4.80;;;;;;;;;;5021670;28;20046;-82
2021/07/17 02:17:53;;;;;;;10.43;3.58;;;;;;;;;;5021117;28;20120;-83
2021/07/17 02:20:20;;;;;;;9.68;5.00;;;;;;;;;;5018586;28;20068;-81
2021/07/17 02:22:50;;;;;;;13.43;6.03;;;;;;;;;;5012313;28;20112;-82
2021/07/17 02:25:19;;;;;;;12.43;4.30;;;;;;;;;;5013091;28;20084;-80
2021/07/17 02:27:45;;;;;;;14.57;4.43;;;;;;;;;;5001961;28;20049;-82
2021/07/17 02:30:14;;;;;;;10.05;3.20;;;;;;;;;;5001390;28;20408;-79
2021/07/17 02:32:40;;;;;;;13.07;4.70;;;;;;;;;;4993496;28;20045;-82
2021/07/17 02:35:07;;;;;;;12.02;4.15;;;;;;;;;;5031414;28;20041;-79
2021/07/17 02:37:34;;;;;;;12.52;4.32;;;;;;;;;;5002373;28;20038;-83
2021/07/17 02:40:01;;;;;;;13.13;4.15;;;;;;;;;;5008137;28;20495;-82
2021/07/17 02:42:27;;;;;;;10.27;4.30;;;;;;;;;;5001976;28;20038;-82
2021/07/17 02:44:54;;;;;;;11.18;4.40;;;;;;;;;;5002305;28;20502;-82
2021/07/17 02:47:22;;;;;;;13.52;6.40;;;;;;;;;;5030457;28;20040;-81
2021/07/17 02:49:48;;;;;;;13.38;5.85;;;;;;;;;;5019355;28;20064;-80
2021/07/17 02:52:15;;;;;;;18.00;7.90;;;;;;;;;;5034642;28;20064;-84
2021/07/17 02:54:42;;;;;;;17.98;8.70;;;;;;;;;;5021521;28;20925;-80
2021/07/17 02:57:08;;;;;;;18.85;10.18;;;;;;;;;;5023491;28;20045;-84
2021/07/17 02:59:37;;;;;;;14.50;9.18;;;;;;;;;;5019915;28;20040;-82
2021/07/17 03:02:03;;;;;;;18.92;9.98;;;;;;;;;;5009542;28;20106;-79
2021/07/17 03:04:30;;;;;;;21.55;10.93;;;;;;;;;;5022042;28;20466;-81
2021/07/17 03:06:56;;;;;;;18.98;10.45;;;;;;;;;;5010732;28;20044;-83
2021/07/17 03:09:23;;;;;;;21.00;11.40;;;;;;;;;;5021358;28;20095;-80
2021/07/17 03:11:50;;;;;;;21.08;11.50;;;;;;;;;;5022239;28;20103;-81
2021/07/17 03:14:17;;;;;;;14.40;9.63;;;;;;;;;;5017092;28;20099;-79
2021/07/17 03:16:44;;;;;;;21.92;10.43;;;;;;;;;;5014864;28;20566;-83
2021/07/17 03:19:10;;;;;;;16.23;8.45;;;;;;;;;;5002634;28;20041;-82
2021/07/17 03:21:37;;;;;;;22.20;12.07;;;;;;;;;;4991381;28;20057;-83
2021/07/17 03:24:03;;;;;;;34.72;17.75;;;;;;;;;;4996673;28;20112;-80
2021/07/17 03:26:30;;;;;;;33.83;21.27;;;;;;;;;;4995852;28;20038;-81
2021/07/17 03:28:57;;;;;;;33.30;19.85;;;;;;;;;;4987642;28;20075;-80
2021/07/17 03:31:30;;;;;;;35.13;18.77;;;;;;;;;;5018280;28;20045;-81
2021/07/17 03:33:58;;;;;;;34.25;19.42;;;;;;;;;;5010600;28;20044;-81
2021/07/17 03:36:25;;;;;;;29.95;16.65;;;;;;;;;;5032916;28;20045;-79
2021/07/17 03:38:51;;;;;;;28.17;15.70;;;;;;;;;;5015438;28;20105;-79
2021/07/17 03:41:19;;;;;;;29.77;17.45;;;;;;;;;;5015164;28;20450;-80
2021/07/17 03:43:47;;;;;;;28.60;15.88;;;;;;;;;;4997950;28;20061;-79
2021/07/17 03:46:14;;;;;;;32.25;18.13;;;;;;;;;;4988039;28;20467;-80
2021/07/17 03:48:41;;;;;;;35.83;18.75;;;;;;;;;;5012110;28;20147;-83
2021/07/17 03:51:07;;;;;;;25.35;15.68;;;;;;;;;;4987075;28;20046;-81
2021/07/17 03:53:34;;;;;;;27.15;14.50;;;;;;;;;;5013917;28;20125;-82
2021/07/17 03:56:00;;;;;;;27.23;14.93;;;;;;;;;;5015016;28;20041;-81
2021/07/17 03:58:27;;;;;;;23.48;11.82;;;;;;;;;;5022323;28;20042;-83
2021/07/17 04:00:53;;;;;;;24.80;13.75;;;;;;;;;;5017118;28;20044;-82
2021/07/17 04:03:22;;;;;;;23.75;14.50;;;;;;;;;;5021202;28;20034;-82
2021/07/17 04:05:49;;;;;;;26.00;15.07;;;;;;;;;;5025388;28;20040;-80
2021/07/17 04:08:15;;;;;;;19.65;8.98;;;;;;;;;;5026448;28;20041;-81
2021/07/17 04:10:42;;;;;;;19.67;9.55;;;;;;;;;;5019820;28;20056;-78
2021/07/17 04:13:08;;;;;;;15.85;7.53;;;;;;;;;;5020057;28;20580;-82
2021/07/17 04:15:35;;;;;;;19.45;7.35;;;;;;;;;;5006327;28;20122;-81
2021/07/17 04:18:02;;;;;;;10.73;4.78;;;;;;;;;;5020571;28;20495;-83
2021/07/17 04:20:28;;;;;;;16.52;4.88;;;;;;;;;;5007689;28;20069;-79
2021/07/17 04:22:57;;;;;;;14.10;4.95;;;;;;;;;;5021433;28;20111;-80
2021/07/17 04:25:23;;;;;;;12.38;4.90;;;;;;;;;;5016344;28;20516;-78
2021/07/17 04:27:51;;;;;;;13.30;5.10;;;;;;;;;;5044684;28;20408;-81
2021/07/17 04:30:18;;;;;;;11.85;5.13;;;;;;;;;;5010414;28;20042;-78
2021/07/17 04:32:44;;;;;;;10.65;4.53;;;;;;;;;;5005751;28;20099;-79
2021/07/17 04:35:11;;;;;;;13.75;9.32;;;;;;;;;;5002178;28;20049;-79
2021/07/17 04:37:38;;;;;;;24.92;15.07;;;;;;;;;;4994014;28;20042;-82
2021/07/17 04:40:05;;;;;;;26.88;15.82;;;;;;;;;;5007271;28;20041;-86
2021/07/17 04:42:33;;;;;;;31.15;16.10;;;;;;;;;;5003372;28;20038;-84
2021/07/17 04:45:01;;;;;;;30.77;16.42;;;;;;;;;;5003479;28;20042;-80
2021/07/17 04:47:28;;;;;;;28.95;16.02;;;;;;;;;;5037712;28;20040;-80
2021/07/17 04:49:55;;;;;;;31.45;18.08;;;;;;;;;;5035348;28;20049;-84
2021/07/17 04:52:21;;;;;;;27.17;17.40;;;;;;;;;;5038477;28;20041;-82
2021/07/17 04:54:48;;;;;;;28.35;17.10;;;;;;;;;;5024984;28;20053;-81
2021/07/17 04:57:14;;;;;;;34.15;17.73;;;;;;;;;;5020389;28;20048;-80
2021/07/17 04:59:41;;;;;;;27.52;15.30;;;;;;;;;;5044603;28;20396;-83
2021/07/17 05:02:07;;;;;;;28.63;16.02;;;;;;;;;;5007954;28;20472;-80
2021/07/17 05:04:34;;;;;;;27.58;16.52;;;;;;;;;;5002062;28;20050;-81
2021/07/17 05:07:00;;;;;;;24.77;13.13;;;;;;;;;;4997869;28;20065;-83
2021/07/17 05:09:27;;;;;;;20.70;11.70;;;;;;;;;;5008136;28;20050;-81
2021/07/17 05:11:53;;;;;;;21.70;11.77;;;;;;;;;;4998193;28;20596;-81
2021/07/17 05:14:20;;;;;;;24.15;11.73;;;;;;;;;;5015100;28;21126;-79
2021/07/17 05:16:46;;;;;;;21.98;12.20;;;;;;;;;;4970717;28;20042;-83
2021/07/17 05:19:13;;;;;;;18.92;12.98;;;;;;;;;;5018244;28;20059;-78
2021/07/17 05:21:41;;;;;;;23.38;13.95;;;;;;;;;;5013470;28;20029;-84
2021/07/17 05:24:08;;;;;;;24.10;12.77;;;;;;;;;;5023832;28;20037;-84
2021/07/17 05:26:34;;;;;;;22.63;14.30;;;;;;;;;;5023491;28;20051;-83
2021/07/17 05:29:01;;;;;;;26.15;15.77;;;;;;;;;;5046971;28;20139;-84
2021/07/17 05:31:29;;;;;;;30.75;15.10;;;;;;;;;;5023884;28;20507;-83
2021/07/17 05:33:55;;;;;;;22.08;13.38;;;;;;;;;;5022855;28;20037;-80
2021/07/17 05:36:22;;;;;;;24.95;13.13;;;;;;;;;;5023891;28;20068;-83
2021/07/17 05:38:50;;;;;;;24.83;12.95;;;;;;;;;;5017595;28;20045;-85
2021/07/17 05:41:17;;;;;;;20.85;12.30;;;;;;;;;;5054819;28;20037;-85
2021/07/17 05:43:43;;;;;;;20.48;12.43;;;;;;;;;;5025128;28;20061;-84
2021/07/17 05:46:11;;;;;;;22.35;12.55;;;;;;;;;;5021743;28;20041;-83
2021/07/17 05:48:39;;;;;;;23.00;12.65;;;;;;;;;;5022822;28;20056;-80
2021/07/17 05:51:05;;;;;;;26.00;13.57;;;;;;;;;;5037042;28;20430;-84
2021/07/17 05:53:33;;;;;;;27.67;13.73;;;;;;;;;;5025684;28;20049;-83
2021/07/17 05:56:00;;;;;;;21.98;13.32;;;;;;;;;;5044225;28;20052;-83
2021/07/17 05:58:29;;;;;;;27.17;12.45;;;;;;;;;;5025415;28;20116;-83
2021/07/17 06:00:55;;;;;;;23.73;11.93;;;;;;;;;;5041806;28;20042;-79
2021/07/17 06:03:22;;;;;;;22.10;11.90;;;;;;;;;;5019671;28;20589;-84
2021/07/17 06:05:48;;;;;;;24.05;13.15;;;;;;;;;;5035753;28;20051;-81
2021/07/17 06:08:15;;;;;;;25.55;12.57;;;;;;;;;;5046882;28;20043;-83
2021/07/17 06:10:41;;;;;;;17.88;11.45;;;;;;;;;;5046549;28;20049;-81
2021/07/17 06:13:08;;;;;;;20.23;11.13;;;;;;;;;;5023054;28;20119;-83
2021/07/17 06:15:36;;;;;;;20.83;10.43;;;;;;;;;;5022458;28;20038;-82
2021/07/17 06:18:03;;;;;;;18.08;10.25;;;;;;;;;;5046641;28;20068;-81
2021/07/17 06:20:30;;;;;;;14.43;8.55;;;;;;;;;;5037654;28;20038;-83
2021/07/17 06:22:57;;;;;;;17.88;9.00;;;;;;;;;;5022804;28;20048;-81
2021/07/17 06:25:23;;;;;;;22.63;9.18;;;;;;;;;;5020380;28;20045;-82
2021/07/17 06:27:50;;;;;;;14.30;7.68;;;;;;;;;;5023657;28;22436;-84
2021/07/17 06:30:17;;;;;;;16.73;8.38;;;;;;;;;;5024201;28;20029;-83
2021/07/17 06:32:43;;;;;;;14.60;9.57;;;;;;;;;;5044582;28;20059;-84
2021/07/17 06:35:11;;;;;;;11.60;8.02;;;;;;;;;;5037059;28;20037;-84
2021/07/17 06:37:41;;;;;;;15.60;8.27;;;;;;;;;;5037456;28;20049;-79
2021/07/17 06:40:16;;;;;;;17.38;8.60;;;;;;;;;;5022403;28;20037;-84
2021/07/17 06:42:44;;;;;;;14.55;8.25;;;;;;;;;;5010596;28;20124;-80
2021/07/17 06:45:11;;;;;;;15.88;8.10;;;;;;;;;;5002517;28;20052;-79
2021/07/17 06:47:39;;;;;;;15.70;8.68;;;;;;;;;;5004436;28;20146;-83
2021/07/17 06:50:07;;;;;;;13.30;9.30;;;;;;;;;;5000853;28;20184;-81
2021/07/17 06:52:37;;;;;;;17.75;9.35;;;;;;;;;;5004828;28;20033;-78
2021/07/17 06:55:05;;;;;;;16.98;8.38;;;;;;;;;;4994980;28;20527;-83
2021/07/17 06:57:32;;;;;;;15.75;8.30;;;;;;;;;;4983432;28;20117;-83
2021/07/17 06:59:59;;;;;;;16.33;8.85;;;;;;;;;;4981627;28;20049;-79
2021/07/17 07:02:26;;;;;;;16.77;8.73;;;;;;;;;;4980510;28;20073;-82
2021/07/17 07:04:52;;;;;;;12.27;8.48;;;;;;;;;;4970676;28;20068;-85
2021/07/17 07:07:19;;;;;;;18.83;8.38;;;;;;;;;;4983042;28;20046;-84
2021/07/17 07:09:49;;;;;;;15.68;8.55;;;;;;;;;;4983917;28;20140;-83
2021/07/17 07:12:17;;;;;;;16.73;7.82;;;;;;;;;;5002515;28;20041;-83
2021/07/17 07:14:44;;;;;;;15.40;8.48;;;;;;;;;;4981471;28;20041;-82
2021/07/17 07:17:11;;;;;;;18.98;8.60;;;;;;;;;;4973405;28;20520;-83
2021/07/17 07:19:37;;;;;;;21.10;9.27;;;;;;;;;;5006178;28;20065;-83
2021/07/17 07:22:04;;;;;;;17.67;8.15;;;;;;;;;;5001098;28;20037;-84
2021/07/17 07:24:31;;;;;;;11.95;7.70;;;;;;;;;;5022407;28;20056;-83
2021/07/17 07:26:58;;;;;;;11.98;7.90;;;;;;;;;;5027612;28;20078;-83
2021/07/17 07:29:27;;;;;;;19.35;9.25;;;;;;;;;;5017681;28;20574;-82
2021/07/17 07:31:54;;;;;;;13.95;8.90;;;;;;;;;;5011940;28;20046;-80
2021/07/17 07:34:21;;;;;;;14.68;9.32;;;;;;;;;;5001047;28;21302;-83
2021/07/17 07:36:48;;;;;;;14.45;8.13;;;;;;;;;;4991952;28;20389;-83
2021/07/17 07:39:18;;;;;;;14.20;9.60;;;;;;;;;;5003572;28;20104;-81
2021/07/17 07:41:45;;;;;;;17.13;9.55;;;;;;;;;;4995458;28;20088;-81
2021/07/17 07:44:12;;;;;;;13.32;9.68;;;;;;;;;;5014767;28;20041;-84
2021/07/17 07:46:39;;;;;;;15.98;10.32;;;;;;;;;;5023852;28;20044;-84
2021/07/17 07:49:08;;;;;;;20.67;10.88;;;;;;;;;;5003988;28;20475;-82
2021/07/17 07:51:35;;;;;;;15.93;11.55;;;;;;;;;;5003733;28;20053;-81
2021/07/17 07:54:02;;;;;;;16.83;12.93;;;;;;;;;;5007684;28;20115;-83
2021/07/17 07:56:30;;;;;;;21.08;14.45;;;;;;;;;;5009827;28;20046;-83
2021/07/17 07:58:57;;;;;;;19.52;13.07;;;;;;;;;;5002177;28;20077;-80
2021/07/17 08:01:23;;;;;;;23.63;13.35;;;;;;;;;;5001659;28;20034;-81
2021/07/17 08:03:52;;;;;;;18.85;12.48;;;;;;;;;;5016559;28;20054;-81
2021/07/17 08:06:19;;;;;;;15.85;11.13;;;;;;;;;;5003761;28;20038;-83
2021/07/17 08:08:45;;;;;;;16.48;9.52;;;;;;;;;;5006007;28;20500;-81
2021/07/17 08:11:12;;;;;;;17.27;9.70;;;;;;;;;;5005491;28;20049;-78
2021/07/17 08:13:38;;;;;;;15.98;9.63;;;;;;;;;;5003053;28;20559;-81
2021/07/17 08:16:05;;;;;;;15.80;9.20;;;;;;;;;;5006868;28;20100;-80
2021/07/17 08:18:32;;;;;;;15.45;8.75;;;;;;;;;;4999712;28;20536;-81
2021/07/17 08:20:59;;;;;;;14.55;8.85;;;;;;;;;;5007665;28;20051;-82
2021/07/17 08:23:26;;;;;;;13.95;8.75;;;;;;;;;;5025774;28;20041;-82
2021/07/17 08:25:52;;;;;;;15.02;8.75;;;;;;;;;;5021922;28;20049;-81
2021/07/17 08:28:21;;;;;;;19.02;8.82;;;;;;;;;;5027736;28;20048;-80
2021/07/17 08:30:47;;;;;;;17.27;9.00;;;;;;;;;;5021464;28;20112;-83
2021/07/17 08:33:14;;;;;;;15.48;9.15;;;;;;;;;;5006873;28;20049;-83
2021/07/17 08:35:41;;;;;;;15.30;8.55;;;;;;;;;;5000710;28;20052;-82
2021/07/17 08:38:07;;;;;;;15.32;8.07;;;;;;;;;;5020451;28;20488;-83
2021/07/17 08:40:34;;;;;;;14.35;8.20;;;;;;;;;;4986838;28;20066;-83
2021/07/17 08:43:01;;;;;;;17.48;9.27;;;;;;;;;;4986305;28;20092;-79
2021/07/17 08:45:27;;;;;;;16.23;8.02;;;;;;;;;;5031483;28;20400;-82
2021/07/17 08:47:55;;;;;;;21.48;9.57;;;;;;;;;;5002674;28;20093;-83
2021/07/17 08:50:27;;;;;;;16.13;10.77;;;;;;;;;;5003849;28;20046;-79
2021/07/17 08:52:59;;;;;;;19.52;11.38;;;;;;;;;;5002686;28;20552;-84
2021/07/17 08:55:26;;;;;;;17.10;10.88;;;;;;;;;;5021798;28;20034;-84
2021/07/17 08:57:55;;;;;;;18.63;12.57;;;;;;;;;;5024711;28;20047;-84
2021/07/17 09:00:25;;;;;;;18.02;11.88;;;;;;;;;;5040843;28;20120;-82
2021/07/17 09:02:58;;;;;;;16.95;11.77;;;;;;;;;;5023563;28;20148;-78
2021/07/17 09:05:26;;;;;;;23.70;11.60;;;;;;;;;;5005883;28;20056;-81
2021/07/17 09:07:54;;;;;;;17.95;10.73;;;;;;;;;;5032742;28;20048;-79
2021/07/17 09:10:28;;;;;;;17.90;9.55;;;;;;;;;;5034908;28;20503;-79
2021/07/17 09:13:16;;;;;;;17.52;10.13;;;;;;;;;;5056309;28;20119;-82
2021/07/17 09:15:49;;;;;;;17.63;10.70;;;;;;;;;;5004228;28;20061;-82
2021/07/17 09:18:48;;;;;;;16.52;9.82;;;;;;;;;;5008622;28;20049;-82
2021/07/17 09:21:30;;;;;;;14.32;10.07;;;;;;;;;;5009564;28;20142;-83
2021/07/17 09:24:06;;;;;;;15.50;9.50;;;;;;;;;;5010830;28;20463;-82
2021/07/17 09:26:39;;;;;;;18.25;9.63;;;;;;;;;;5004154;28;20050;-83
2021/07/17 09:29:10;;;;;;;15.50;11.13;;;;;;;;;;5006738;28;20128;-82
2021/07/17 09:31:52;;;;;;;14.15;11.13;;;;;;;;;;5020232;28;20044;-81
2021/07/17 09:34:28;;;;;;;17.52;12.05;;;;;;;;;;5005573;28;20041;-79
2021/07/17 09:37:10;;;;;;;17.50;11.10;;;;;;;;;;5015669;28;20064;-81
2021/07/17 09:39:40;;;;;;;21.13;10.60;;;;;;;;;;5000370;28;20041;-81
2021/07/17 09:42:14;;;;;;;19.75;11.27;;;;;;;;;;5016975;28;20076;-80
2021/07/17 09:44:42;;;;;;;21.55;11.65;;;;;;;;;;5018469;28;20046;-82
2021/07/17 09:47:21;;;;;;;20.25;12.32;;;;;;;;;;5006461;28;20044;-83
2021/07/17 09:49:48;;;;;;;23.20;12.88;;;;;;;;;;5018633;28;20068;-80
2021/07/17 09:52:22;;;;;;;23.75;12.75;;;;;;;;;;5004908;28;20049;-82
2021/07/17 09:55:08;;;;;;;22.92;13.50;;;;;;;;;;5013954;28;20052;-82
2021/07/17 09:57:35;;;;;;;21.88;11.93;;;;;;;;;;5031141;28;20114;-83
2021/07/17 10:00:17;;;;;;;22.15;13.63;;;;;;;;;;5026182;28;20040;-83
2021/07/17 10:02:44;;;;;;;22.13;15.02;;;;;;;;;;5056156;28;20130;-83
2021/07/17 10:05:16;;;;;;;24.42;13.43;;;;;;;;;;5027251;28;25198;-82
2021/07/17 10:07:44;;;;;;;26.00;14.20;;;;;;;;;;5036733;28;20170;-81
2021/07/17 10:10:10;;;;;;;18.70;13.15;;;;;;;;;;4998983;28;20048;-82
2021/07/17 10:12:39;;;;;;;19.73;13.98;;;;;;;;;;5023891;28;20049;-82
2021/07/17 10:15:09;;;;;;;20.92;13.18;;;;;;;;;;5028766;28;20044;-81
2021/07/17 10:17:36;;;;;;;21.65;13.45;;;;;;;;;;5028918;28;20045;-78
2021/07/17 10:20:08;;;;;;;21.60;12.82;;;;;;;;;;5035637;28;20053;-79
2021/07/17 10:22:37;;;;;;;20.23;12.35;;;;;;;;;;5019548;28;20052;-82
2021/07/17 10:25:05;;;;;;;23.95;13.35;;;;;;;;;;5023805;28;20041;-80
2021/07/17 10:27:34;;;;;;;23.10;14.60;;;;;;;;;;5023657;28;20033;-81
2021/07/17 10:30:02;;;;;;;19.85;13.52;;;;;;;;;;5023813;28;20544;-81
2021/07/17 10:32:32;;;;;;;19.00;11.38;;;;;;;;;;5031986;28;20061;-81
2021/07/17 10:34:59;;;;;;;17.60;11.82;;;;;;;;;;5023130;28;20041;-80
2021/07/17 10:37:33;;;;;;;17.92;12.32;;;;;;;;;;5019108;28;20045;-81
2021/07/17 10:40:16;;;;;;;17.77;13.00;;;;;;;;;;5025784;28;20036;-80
2021/07/17 10:42:50;;;;;;;18.98;12.90;;;;;;;;;;5005590;28;20523;-85
2021/07/17 10:45:43;;;;;;;18.08;11.13;;;;;;;;;;5014594;28;20041;-83
2021/07/17 10:48:31;;;;;;;16.75;12.77;;;;;;;;;;5031689;28;20036;-83
2021/07/17 10:51:21;;;;;;;20.30;11.20;;;;;;;;;;5029055;28;20037;-83
2021/07/17 10:53:54;;;;;;;18.17;12.07;;;;;;;;;;5034454;28;20041;-83
2021/07/17 10:56:30;;;;;;;18.42;11.95;;;;;;;;;;5015692;28;20049;-86
2021/07/17 10:59:00;;;;;;;18.60;11.20;;;;;;;;;;5032350;28;20044;-84
2021/07/17 11:01:47;;;;;;;15.82;11.27;;;;;;;;;;5014449;28;20487;-85
2021/07/17 11:04:53;;;;;;;18.58;11.75;;;;;;;;;;5045898;28;20120;-84
2021/07/17 11:07:20;;;;;;;17.20;11.55;;;;;;;;;;5020378;28;20048;-83
2021/07/17 11:09:59;;;;;;;18.90;12.90;;;;;;;;;;5014613;28;20061;-84
2021/07/17 11:12:36;;;;;;;20.55;12.95;;;;;;;;;;4975249;28;20071;-84
2021/07/17 11:15:08;;;;;;;19.45;12.20;;;;;;;;;;5018806;28;20121;-84
2021/07/17 11:17:41;;;;;;;19.63;11.63;;;;;;;;;;4996709;28;20120;-83
2021/07/17 11:20:28;;;;;;;17.98;11.82;;;;;;;;;;5019654;28;20044;-81
2021/07/17 11:23:05;;;;;;;17.95;13.57;;;;;;;;;;5037562;28;20045;-82
2021/07/17 11:25:33;;;;;;;17.17;11.32;;;;;;;;;;5023958;28;20047;-81
2021/07/17 11:28:00;;;;;;;18.42;11.25;;;;;;;;;;4999607;28;20037;-80
2021/07/17 11:30:32;;;;;;;18.35;11.35;;;;;;;;;;5022847;28;20032;-80
2021/07/17 11:33:07;;;;;;;17.65;10.82;;;;;;;;;;5031010;28;20045;-82
2021/07/17 11:35:35;;;;;;;15.60;11.20;;;;;;;;;;5017824;28;20057;-80
2021/07/17 11:38:02;;;;;;;;;;;;;;;;;;5017180;28;20566;-82
2021/07/17 11:40:31;;;;;;;18.30;10.88;;;;;;;;;;5016064;28;20107;-81
2021/07/17 11:43:06;;;;;;;18.00;11.07;;;;;;;;;;5024234;28;20451;-82
2021/07/17 11:45:32;;;;;;;20.15;12.80;;;;;;;;;;5025297;28;20052;-82
2021/07/17 11:48:13;;;;;;;21.85;12.93;;;;;;;;;;5016873;28;20082;-81
2021/07/17 11:50:45;;;;;;;18.75;12.23;;;;;;;;;;5018840;28;20148;-83
2021/07/17 11:53:17;;;;;;;25.25;14.38;;;;;;;;;;5024773;28;20049;-83
2021/07/17 11:55:57;;;;;;;24.45;15.35;;;;;;;;;;5037943;28;20099;-82
2021/07/17 11:58:23;;;;;;;24.35;12.88;;;;;;;;;;5016367;28;20107;-81
2021/07/17 12:01:03;;;;;;;26.65;14.10;;;;;;;;;;5021986;28;20065;-82
2021/07/17 12:03:31;;;;;;;25.55;14.05;;;;;;;;;;5041458;28;20036;-83
2021/07/17 12:05:58;;;;;;;23.05;11.50;;;;;;;;;;5021430;28;20415;-84
2021/07/17 12:08:25;;;;;;;22.48;12.90;;;;;;;;;;5020683;28;20117;-85
2021/07/17 12:10:52;;;;;;;23.98;13.27;;;;;;;;;;5024723;28;20036;-85
2021/07/17 12:13:21;;;;;;;25.08;13.85;;;;;;;;;;5008920;28;20519;-84
2021/07/17 12:15:49;;;;;;;23.20;13.93;;;;;;;;;;5031374;28;20037;-87
2021/07/17 12:18:18;;;;;;;22.85;14.00;;;;;;;;;;5000481;28;20070;-83
2021/07/17 12:20:49;;;;;;;22.52;14.65;;;;;;;;;;5016733;28;20137;-83
2021/07/17 12:23:20;;;;;;;26.80;13.68;;;;;;;;;;5022158;28;20044;-85
2021/07/17 12:25:53;;;;;;;23.23;12.38;;;;;;;;;;4992319;28;20034;-88
2021/07/17 12:28:23;;;;;;;;;;;;;;;;;;4992218;28;20049;-86
2021/07/17 12:31:07;;;;;;;19.42;12.05;;;;;;;;;;5005883;28;19924;-84
2021/07/17 12:33:39;;;;;;;18.05;10.18;;;;;;;;;;4992239;28;20396;-85
2021/07/17 12:36:29;;;;;;;19.83;10.68;;;;;;;;;;4974938;28;20087;-84
2021/07/17 12:38:59;;;;;;;15.45;10.13;;;;;;;;;;5033342;28;20037;-89
2021/07/17 12:41:29;;;;;;;18.73;11.68;;;;;;;;;;5010256;28;20494;-85
2021/07/17 12:44:11;;;;;;;20.38;11.93;;;;;;;;;;4996629;28;20044;-84
2021/07/17 12:46:39;;;;;;;23.10;13.02;;;;;;;;;;5001456;28;20049;-83
2021/07/17 12:49:17;;;;;;;24.00;12.13;;;;;;;;;;4988016;28;20107;-85
2021/07/17 12:51:53;;;;;;;19.35;11.95;;;;;;;;;;5013528;28;20133;-85
2021/07/17 12:54:22;;;;;;;16.00;10.63;;;;;;;;;;4999972;28;20127;-86
2021/07/17 12:56:50;;;;;;;19.08;10.57;;;;;;;;;;4999464;28;20059;-83
2021/07/17 12:59:32;;;;;;;17.05;11.23;;;;;;;;;;5018209;28;20106;-82
2021/07/17 13:02:10;;;;;;;18.92;11.60;;;;;;;;;;5022346;28;20037;-83
2021/07/17 13:04:44;;;;;;;18.02;11.93;;;;;;;;;;4997929;28;20038;-86
2021/07/17 13:07:11;;;;;;;;;;;;;;;;;;5014339;28;20078;-82
2021/07/17 13:09:48;;;;;;;20.50;10.95;;;;;;;;;;5004134;28;19921;-84
2021/07/17 13:12:15;;;;;;;17.92;10.48;;;;;;;;;;5007391;28;20069;-86
2021/07/17 13:14:44;;;;;;;19.48;12.13;;;;;;;;;;5008523;28;20050;-84
2021/07/17 13:17:11;;;;;;;;;;;;;;;;;;4999395;28;20045;-87
2021/07/17 13:19:37;;;;;;;;;;;;;;;;;;4999353;28;19917;-85
2021/07/17 13:22:06;;;;;;;17.67;11.02;;;;;;;;;;5010093;28;19916;-85
2021/07/17 13:24:46;;;;;;;17.70;11.50;;;;;;;;;;4989377;28;20068;-85
2021/07/17 13:27:26;;;;;;;18.90;11.18;;;;;;;;;;5010161;28;20117;-86
2021/07/17 13:29:54;;;;;;;16.17;10.77;;;;;;;;;;5010069;28;20042;-84
2021/07/17 13:32:33;;;;;;;16.05;11.25;;;;;;;;;;5024528;28;20077;-81
2021/07/17 13:35:38;;;;;;;14.38;9.80;;;;;;;;;;5017184;28;20064;-83
2021/07/17 13:38:08;;;;;;;14.02;10.38;;;;;;;;;;4965799;28;20043;-82
2021/07/17 13:40:39;;;;;;;16.38;10.30;;;;;;;;;;5001909;28;20041;-82
2021/07/17 13:43:15;;;;;;;14.85;10.48;;;;;;;;;;5000576;28;20037;-79
2021/07/17 13:45:43;;;;;;;14.38;10.00;;;;;;;;;;5005523;28;20045;-83
2021/07/17 13:48:10;;;;;;;15.63;11.10;;;;;;;;;;4999887;28;20084;-82
2021/07/17 13:50:43;;;;;;;14.25;10.73;;;;;;;;;;4985907;28;20045;-78
2021/07/17 13:53:15;;;;;;;18.98;11.25;;;;;;;;;;4984754;28;20049;-79
2021/07/17 13:55:53;;;;;;;15.80;11.00;;;;;;;;;;5009968;28;20132;-81
2021/07/17 13:58:22;;;;;;;13.85;9.93;;;;;;;;;;5006865;28;20045;-81
2021/07/17 14:00:55;;;;;;;16.95;11.60;;;;;;;;;;4997521;28;20125;-80
2021/07/17 14:03:34;;;;;;;20.10;11.90;;;;;;;;;;5001965;28;20072;-78
2021/07/17 14:06:09;;;;;;;16.30;11.77;;;;;;;;;;5016366;28;20063;-82
2021/07/17 14:08:37;;;;;;;18.92;11.88;;;;;;;;;;5006816;28;20060;-79
2021/07/17 14:11:08;;;;;;;19.60;12.60;;;;;;;;;;5002986;28;20519;-82
2021/07/17 14:13:36;;;;;;;18.00;12.45;;;;;;;;;;4975251;28;20073;-82
2021/07/17 14:16:04;;;;;;;17.77;12.52;;;;;;;;;;4992413;28;20041;-84
2021/07/17 14:18:31;;;;;;;21.25;12.75;;;;;;;;;;5016309;28;20395;-81
2021/07/17 14:20:59;;;;;;;21.20;14.25;;;;;;;;;;5001807;28;20042;-82
2021/07/17 14:23:26;;;;;;;;;;;;;;;;;;5003188;28;20042;-83
2021/07/17 14:25:54;;;;;;;16.20;10.68;;;;;;;;;;5003307;28;20326;-82
2021/07/17 14:28:21;;;;;;;18.20;11.10;;;;;;;;;;4999289;28;20049;-85
2021/07/17 14:30:48;;;;;;;14.25;11.02;;;;;;;;;;5002535;28;20088;-82
2021/07/17 14:33:15;;;;;;;14.73;10.55;;;;;;;;;;5017919;28;20091;-83
2021/07/17 14:35:42;;;;;;;15.18;10.75;;;;;;;;;;5001780;28;20472;-82
2021/07/17 14:38:11;;;;;;;16.50;11.05;;;;;;;;;;5023269;28;20068;-80
2021/07/17 14:40:39;;;;;;;16.90;11.38;;;;;;;;;;5003004;28;20041;-80